createdAt,value
2023-02-16T00:00:26.861Z,15.85
2023-02-16T00:02:54.069Z,15.90
2023-02-16T00:05:28.208Z,15.02
2023-02-16T00:07:56.587Z,14.13
2023-02-16T00:10:25.047Z,12.00
2023-02-16T00:13:11.736Z,14.02
2023-02-16T00:15:38.633Z,12.57
2023-02-16T00:18:19.230Z,13.18
2023-02-16T00:20:48.276Z,13.35
2023-02-16T00:23:15.399Z,12.05
2023-02-16T00:25:42.206Z,12.10
2023-02-16T00:28:18.390Z,12.60
2023-02-16T00:30:46.321Z,11.32
2023-02-16T00:33:18.522Z,12.88
2023-02-16T00:35:45.612Z,12.43
2023-02-16T00:38:13.542Z,10.82
2023-02-16T00:40:42.322Z,13.30
2023-02-16T00:43:32.498Z,11.23
2023-02-16T00:45:59.706Z,12.18
2023-02-16T00:48:26.517Z,11.23
2023-02-16T00:50:53.588Z,13.55
2023-02-16T00:53:20.322Z,12.20
2023-02-16T00:55:47.171Z,11.13
2023-02-16T00:58:27.860Z,11.60
2023-02-16T01:01:02.568Z,11.77
2023-02-16T01:03:29.761Z,11.95
2023-02-16T01:06:15.409Z,12.52
2023-02-16T01:09:01.513Z,11.00
2023-02-16T01:11:28.983Z,12.05
2023-02-16T01:13:57.498Z,12.10
2023-02-16T01:16:38.957Z,13.55
2023-02-16T01:19:06.731Z,12.45
2023-02-16T01:21:33.881Z,12.43
2023-02-16T01:24:00.693Z,13.48
2023-02-16T01:26:27.492Z,12.60
2023-02-16T01:28:54.215Z,13.57
2023-02-16T01:31:21.130Z,12.18
2023-02-16T01:33:47.858Z,12.35
2023-02-16T01:36:32.546Z,12.88
2023-02-16T01:39:00.048Z,13.07
2023-02-16T01:41:57.234Z,11.60
2023-02-16T01:44:27.240Z,12.55
2023-02-16T01:47:16.524Z,12.68
2023-02-16T01:49:43.262Z,13.65
2023-02-16T01:52:37.813Z,12.23
2023-02-16T01:58:03.975Z,10.52
2023-02-16T02:00:49.061Z,10.88
2023-02-16T02:03:49.353Z,11.13
2023-02-16T02:06:27.791Z,11.45
2023-02-16T02:09:16.288Z,12.15
2023-02-16T02:11:57.290Z,12.68
2023-02-16T02:14:32.664Z,13.80
2023-02-16T02:17:05.977Z,10.60
2023-02-16T02:19:48.696Z,13.40
2023-02-16T02:23:06.966Z,12.35
2023-02-16T02:26:04.453Z,11.85
2023-02-16T02:28:53.175Z,11.80
2023-02-16T02:31:44.126Z,12.52
2023-02-16T02:34:38.256Z,12.13
2023-02-16T02:37:29.749Z,12.88
2023-02-16T02:40:41.596Z,12.73
2023-02-16T02:43:37.693Z,12.18
2023-02-16T02:46:17.925Z,13.35
2023-02-16T02:48:44.728Z,11.65
2023-02-16T02:51:30.333Z,11.35
2023-02-16T02:54:25.170Z,11.48
2023-02-16T02:57:37.734Z,11.70
2023-02-16T03:00:39.973Z,11.20
2023-02-16T03:03:32.802Z,12.23
2023-02-16T03:06:11.176Z,9.98
2023-02-16T03:08:44.776Z,12.23
2023-02-16T03:11:40.350Z,10.40
2023-02-16T03:14:15.142Z,10.57
2023-02-16T03:16:48.164Z,11.40
2023-02-16T03:19:37.127Z,10.57
2023-02-16T03:22:24.022Z,9.90
2023-02-16T03:25:09.395Z,10.77
2023-02-16T03:28:00.378Z,11.32
2023-02-16T03:30:28.988Z,11.43
2023-02-16T03:32:55.880Z,12.60
2023-02-16T03:35:22.882Z,12.98
2023-02-16T03:37:49.630Z,11.20
2023-02-16T03:40:30.121Z,11.20
2023-02-16T03:43:03.462Z,11.90
2023-02-16T03:45:33.062Z,12.82
2023-02-16T03:47:59.792Z,10.88
2023-02-16T03:50:27.406Z,11.25
2023-02-16T03:53:06.879Z,10.73
2023-02-16T03:55:47.047Z,10.95
2023-02-16T03:58:18.575Z,10.63
2023-02-16T04:00:45.678Z,10.30
2023-02-16T04:03:13.298Z,11.70
2023-02-16T04:05:40.353Z,10.57
2023-02-16T04:08:08.832Z,11.55
2023-02-16T04:10:37.262Z,13.70
2023-02-16T04:13:04.600Z,11.27
2023-02-16T04:15:32.252Z,10.57
2023-02-16T04:17:59.970Z,11.35
2023-02-16T04:20:31.106Z,10.45
2023-02-16T04:22:58.467Z,11.65
2023-02-16T04:25:25.838Z,11.70
2023-02-16T04:27:54.109Z,11.32
2023-02-16T04:30:26.439Z,12.50
2023-02-16T04:32:53.998Z,11.20
2023-02-16T04:35:21.628Z,10.98
2023-02-16T04:37:48.869Z,11.00
2023-02-16T04:40:17.833Z,11.52
2023-02-16T04:42:45.877Z,10.10
2023-02-16T04:45:13.626Z,10.20
2023-02-16T04:47:40.626Z,10.75
2023-02-16T04:50:08.559Z,13.60
2023-02-16T04:52:36.616Z,11.52
2023-02-16T04:55:05.456Z,11.88
2023-02-16T04:57:32.475Z,12.93
2023-02-16T04:59:59.228Z,12.10
2023-02-16T05:02:26.011Z,12.63
2023-02-16T05:04:52.796Z,10.98
2023-02-16T05:07:19.539Z,11.23
2023-02-16T05:09:46.277Z,11.10
2023-02-16T05:12:31.745Z,11.32
2023-02-16T05:14:58.471Z,11.55
2023-02-16T05:17:26.951Z,12.65
2023-02-16T05:20:00.119Z,11.88
2023-02-16T05:22:33.549Z,11.20
2023-02-16T05:25:03.561Z,12.32
2023-02-16T05:27:31.096Z,10.57
2023-02-16T05:29:58.778Z,11.50
2023-02-16T05:32:26.478Z,11.30
2023-02-16T05:34:53.390Z,11.27
2023-02-16T05:37:20.106Z,14.02
2023-02-16T05:39:47.082Z,12.05
2023-02-16T05:42:13.938Z,11.40
2023-02-16T05:44:40.689Z,10.57
2023-02-16T05:47:07.934Z,13.73
2023-02-16T05:49:34.725Z,12.52
2023-02-16T05:52:01.847Z,10.80
2023-02-16T05:54:28.699Z,12.38
2023-02-16T05:56:55.557Z,11.63
2023-02-16T05:59:22.646Z,12.30
2023-02-16T06:01:51.848Z,11.73
2023-02-16T06:04:20.567Z,12.70
2023-02-16T06:06:48.274Z,11.95
2023-02-16T06:09:15.095Z,13.00
2023-02-16T06:11:42.106Z,12.35
2023-02-16T06:14:15.583Z,15.90
2023-02-16T06:16:45.910Z,11.75
2023-02-16T06:19:13.711Z,12.95
2023-02-16T06:21:41.484Z,12.30
2023-02-16T06:24:10.448Z,13.52
2023-02-16T06:26:37.903Z,12.48
2023-02-16T06:29:06.883Z,11.45
2023-02-16T06:31:36.189Z,15.48
2023-02-16T06:34:03.764Z,11.75
2023-02-16T06:36:31.032Z,12.48
2023-02-16T06:38:57.790Z,12.40
2023-02-16T06:41:40.007Z,13.00
2023-02-16T06:44:12.520Z,12.80
2023-02-16T06:46:41.091Z,12.50
2023-02-16T06:49:11.105Z,13.60
2023-02-16T06:51:38.682Z,13.07
2023-02-16T06:54:05.520Z,13.43
2023-02-16T06:56:32.398Z,13.82
2023-02-16T06:58:59.147Z,12.50
2023-02-16T07:01:26.236Z,13.55
2023-02-16T07:03:55.167Z,12.93
2023-02-16T07:06:24.793Z,15.60
2023-02-16T07:08:53.025Z,12.73
2023-02-16T07:11:20.318Z,14.05
2023-02-16T07:13:47.820Z,12.52
2023-02-16T07:16:15.722Z,15.00
2023-02-16T07:18:42.816Z,16.73
2023-02-16T07:21:09.536Z,13.02
2023-02-16T07:23:36.278Z,14.93
2023-02-16T07:26:03.138Z,13.93
2023-02-16T07:28:29.938Z,13.93
2023-02-16T07:30:56.762Z,14.40
2023-02-16T07:33:23.905Z,15.43
2023-02-16T07:35:50.629Z,12.23
2023-02-16T07:38:17.434Z,16.95
2023-02-16T07:40:44.164Z,14.82
2023-02-16T07:43:10.882Z,14.00
2023-02-16T07:45:37.787Z,13.75
2023-02-16T07:48:05.102Z,13.95
2023-02-16T07:50:31.867Z,13.07
2023-02-16T07:53:02.726Z,14.82
2023-02-16T07:55:29.463Z,14.60
2023-02-16T07:58:00.043Z,14.63
2023-02-16T08:00:27.403Z,15.00
2023-02-16T08:02:54.191Z,14.27
2023-02-16T08:05:21.154Z,14.38
2023-02-16T08:07:47.986Z,14.38
2023-02-16T08:10:15.730Z,15.15
2023-02-16T08:12:42.704Z,15.68
2023-02-16T08:15:10.655Z,13.80
2023-02-16T08:17:37.460Z,16.38
2023-02-16T08:20:07.627Z,15.05
2023-02-16T08:22:35.852Z,17.25
2023-02-16T08:25:02.613Z,18.10
2023-02-16T08:27:29.320Z,15.27
2023-02-16T08:29:56.093Z,16.58
2023-02-16T08:32:22.967Z,18.95
2023-02-16T08:34:49.732Z,16.02
2023-02-16T08:37:16.467Z,15.48
2023-02-16T08:39:43.361Z,18.40
2023-02-16T08:42:13.295Z,16.85
2023-02-16T08:44:42.270Z,17.83
2023-02-16T08:47:09.496Z,16.23
2023-02-16T08:49:36.491Z,16.75
2023-02-16T08:52:04.173Z,17.88
2023-02-16T08:54:33.243Z,17.83
2023-02-16T08:57:02.682Z,15.38
2023-02-16T08:59:30.361Z,17.90
2023-02-16T09:01:59.424Z,16.10
2023-02-16T09:04:29.252Z,15.77
2023-02-16T09:06:58.145Z,17.77
2023-02-16T09:09:26.290Z,17.10
2023-02-16T09:11:53.505Z,15.10
2023-02-16T09:14:22.951Z,20.02
2023-02-16T09:16:50.205Z,17.63
2023-02-16T09:19:20.703Z,17.65
2023-02-16T09:21:50.888Z,16.60
2023-02-16T09:24:19.082Z,20.60
2023-02-16T09:26:45.833Z,19.02
2023-02-16T09:29:13.867Z,20.00
2023-02-16T09:31:42.445Z,20.90
2023-02-16T09:34:21.694Z,20.88
2023-02-16T09:36:50.370Z,21.33
2023-02-16T09:39:18.676Z,19.13
2023-02-16T09:42:03.277Z,20.92
2023-02-16T09:45:02.774Z,20.25
2023-02-16T09:47:35.649Z,19.10
2023-02-16T09:50:13.266Z,22.38
2023-02-16T09:52:52.502Z,18.58
2023-02-16T09:55:22.447Z,22.55
2023-02-16T09:58:17.361Z,22.20
2023-02-16T10:00:52.064Z,22.10
2023-02-16T10:03:34.447Z,22.40
2023-02-16T10:06:13.663Z,23.33
2023-02-16T10:09:16.992Z,20.65
2023-02-16T10:11:51.179Z,21.30
2023-02-16T10:14:31.671Z,23.42
2023-02-16T10:17:32.643Z,21.17
2023-02-16T10:20:23.740Z,22.13
2023-02-16T10:23:07.963Z,21.98
2023-02-16T10:28:22.647Z,16.50
2023-02-16T10:31:03.217Z,19.58
2023-02-16T10:33:45.091Z,17.92
2023-02-16T10:36:42.467Z,18.65
2023-02-16T10:39:43.380Z,21.13
2023-02-16T10:42:43.862Z,18.35
2023-02-16T10:45:42.000Z,20.92
2023-02-16T10:48:11.073Z,18.15
2023-02-16T10:50:58.443Z,21.63
2023-02-16T10:53:40.556Z,20.38
2023-02-16T10:56:43.786Z,20.45
2023-02-16T10:59:43.726Z,19.60
2023-02-16T11:02:44.164Z,18.25
2023-02-16T11:05:26.232Z,18.35
2023-02-16T11:08:02.567Z,20.67
2023-02-16T11:10:51.670Z,16.83
2023-02-16T11:13:27.892Z,19.38
2023-02-16T11:16:01.569Z,20.33
2023-02-16T11:18:37.928Z,19.30
2023-02-16T11:21:07.385Z,21.08
2023-02-16T11:23:37.343Z,20.08
2023-02-16T11:26:11.718Z,23.05
2023-02-16T11:28:47.662Z,20.05
2023-02-16T11:31:34.258Z,22.90
2023-02-16T11:34:26.000Z,17.48
2023-02-16T11:37:12.312Z,24.60
2023-02-16T11:39:46.984Z,23.40
2023-02-16T11:42:43.962Z,19.52
2023-02-16T11:45:33.699Z,23.52
2023-02-16T11:48:27.223Z,19.83
2023-02-16T11:50:58.555Z,20.80
2023-02-16T11:53:30.934Z,20.65
2023-02-16T11:56:24.574Z,20.23
2023-02-16T11:59:20.732Z,20.30
2023-02-16T12:01:53.048Z,19.92
2023-02-16T12:05:01.795Z,21.88
2023-02-16T12:08:07.515Z,20.80
2023-02-16T12:11:06.330Z,20.90
2023-02-16T12:13:56.938Z,19.27
2023-02-16T12:16:45.582Z,18.65
2023-02-16T12:19:45.071Z,18.75
2023-02-16T12:22:22.094Z,18.17
2023-02-16T12:25:19.788Z,16.30
2023-02-16T12:28:40.743Z,18.60
2023-02-16T12:31:54.381Z,17.67
2023-02-16T12:34:52.338Z,20.05
2023-02-16T12:37:42.586Z,18.73
2023-02-16T12:40:50.140Z,18.17
2023-02-16T12:43:41.886Z,19.67
2023-02-16T12:46:40.421Z,21.13
2023-02-16T12:49:27.499Z,28.15
2023-02-16T12:52:10.287Z,19.08
2023-02-16T12:54:54.436Z,19.67
2023-02-16T13:00:03.004Z,20.23
2023-02-16T13:02:47.079Z,19.95
2023-02-16T13:05:36.047Z,16.92
2023-02-16T13:08:28.128Z,17.60
2023-02-16T13:11:22.102Z,20.67
2023-02-16T13:13:52.656Z,16.40
2023-02-16T13:17:00.222Z,20.85
2023-02-16T13:19:26.988Z,16.73
2023-02-16T13:21:53.621Z,15.57
2023-02-16T13:25:17.180Z,25.15
2023-02-16T13:28:32.262Z,22.35
2023-02-16T13:34:07.018Z,16.05
2023-02-16T13:36:56.503Z,15.93
2023-02-16T13:39:49.788Z,17.05
2023-02-16T13:42:22.392Z,17.20
2023-02-16T13:44:56.567Z,16.13
2023-02-16T13:47:39.055Z,16.85
2023-02-16T13:50:26.824Z,17.75
2023-02-16T13:52:57.596Z,16.55
2023-02-16T13:55:31.933Z,21.30
2023-02-16T13:58:04.522Z,19.27
2023-02-16T14:00:38.066Z,17.25
2023-02-16T14:03:22.263Z,19.80
2023-02-16T14:08:31.329Z,18.23
2023-02-16T14:11:05.776Z,17.25
2023-02-16T14:13:36.858Z,21.00
2023-02-16T14:16:18.807Z,18.80
2023-02-16T14:18:54.932Z,17.88
2023-02-16T14:21:32.323Z,19.38
2023-02-16T14:24:03.217Z,16.27
2023-02-16T14:26:32.516Z,17.55
2023-02-16T14:29:28.762Z,14.80
2023-02-16T14:32:26.423Z,19.30
2023-02-16T14:35:03.222Z,15.57
2023-02-16T14:37:44.361Z,14.52
2023-02-16T14:40:34.884Z,14.38
2023-02-16T14:43:20.024Z,16.02
2023-02-16T14:46:47.494Z,18.25
2023-02-16T14:49:35.702Z,17.20
2023-02-16T14:52:39.433Z,17.25
2023-02-16T14:55:47.467Z,17.05
2023-02-16T14:58:44.840Z,17.33
2023-02-16T15:01:18.850Z,16.20
2023-02-16T15:03:54.729Z,16.02
2023-02-16T15:06:47.580Z,16.00
2023-02-16T15:09:24.432Z,16.00
2023-02-16T15:12:18.098Z,14.32
2023-02-16T15:15:02.750Z,15.90
2023-02-16T15:17:38.308Z,15.27
2023-02-16T15:20:33.282Z,16.00
2023-02-16T15:23:04.422Z,16.63
2023-02-16T15:25:38.434Z,16.65
2023-02-16T15:28:22.257Z,13.73
2023-02-16T15:30:55.358Z,16.42
2023-02-16T15:33:24.922Z,15.77
2023-02-16T15:36:02.359Z,16.00
2023-02-16T15:38:34.355Z,15.85
2023-02-16T15:41:06.508Z,15.45
2023-02-16T15:43:39.967Z,16.08
2023-02-16T15:46:29.488Z,15.48
2023-02-16T15:48:57.264Z,16.20
2023-02-16T15:51:35.022Z,19.17
2023-02-16T15:54:06.611Z,16.23
2023-02-16T15:56:38.200Z,18.10
2023-02-16T15:59:39.525Z,14.52
2023-02-16T16:02:28.556Z,15.55
2023-02-16T16:05:03.269Z,15.88
2023-02-16T16:07:37.049Z,12.30
2023-02-16T16:10:17.240Z,15.80
2023-02-16T16:12:45.634Z,13.15
2023-02-16T16:15:21.008Z,16.33
2023-02-16T16:17:47.759Z,14.55
2023-02-16T16:20:30.520Z,13.23
2023-02-16T16:23:23.555Z,12.73
2023-02-16T16:25:51.270Z,15.73
2023-02-16T16:28:29.700Z,14.38
2023-02-16T16:31:17.352Z,15.05
2023-02-16T16:34:02.895Z,12.00
2023-02-16T16:36:55.657Z,14.80
2023-02-16T16:39:28.761Z,13.65
2023-02-16T16:42:01.084Z,16.27
2023-02-16T16:44:41.367Z,16.50
2023-02-16T16:47:22.707Z,14.20
2023-02-16T16:49:55.553Z,15.20
2023-02-16T16:52:41.591Z,14.90
2023-02-16T16:55:21.519Z,12.77
2023-02-16T16:57:52.058Z,15.23
2023-02-16T17:00:21.638Z,14.93
2023-02-16T17:02:48.941Z,15.38
2023-02-16T17:05:16.177Z,14.65
2023-02-16T17:07:43.192Z,15.18
2023-02-16T17:10:10.315Z,16.25
2023-02-16T17:12:37.088Z,16.30
2023-02-16T17:15:07.746Z,17.10
2023-02-16T17:17:34.752Z,16.48
2023-02-16T17:20:01.473Z,18.15
2023-02-16T17:22:28.222Z,15.55
2023-02-16T17:24:54.944Z,17.98
2023-02-16T17:27:21.708Z,17.33
2023-02-16T17:29:48.478Z,16.65
2023-02-16T17:32:15.305Z,15.43
2023-02-16T17:34:42.093Z,15.23
2023-02-16T17:37:10.630Z,16.35
2023-02-16T17:39:37.410Z,17.90
2023-02-16T17:42:04.440Z,18.67
2023-02-16T17:44:31.187Z,22.00
2023-02-16T17:46:57.981Z,16.00
2023-02-16T17:49:24.713Z,14.57
2023-02-16T17:51:51.829Z,15.40
2023-02-16T17:54:18.570Z,18.90
2023-02-16T17:56:46.820Z,17.50
2023-02-16T17:59:15.467Z,15.30
2023-02-16T18:01:43.989Z,17.33
2023-02-16T18:04:10.967Z,17.23
2023-02-16T18:06:37.724Z,15.18
2023-02-16T18:09:04.794Z,14.43
2023-02-16T18:11:31.701Z,17.77
2023-02-16T18:13:58.516Z,15.95
2023-02-16T18:16:27.451Z,16.15
2023-02-16T18:18:54.700Z,13.32
2023-02-16T18:21:21.540Z,16.40
2023-02-16T18:23:48.297Z,13.68
2023-02-16T18:26:16.840Z,16.67
2023-02-16T18:28:44.935Z,14.88
2023-02-16T18:31:12.947Z,16.48
2023-02-16T18:33:39.838Z,14.65
2023-02-16T18:36:07.387Z,16.00
2023-02-16T18:38:34.509Z,15.98
2023-02-16T18:41:01.265Z,16.83
2023-02-16T18:43:28.187Z,15.63
2023-02-16T18:45:54.928Z,16.08
2023-02-16T18:48:21.756Z,16.70
2023-02-16T18:50:48.863Z,17.55
2023-02-16T18:53:15.593Z,17.98
2023-02-16T18:55:43.125Z,16.35
2023-02-16T18:58:14.368Z,14.88
2023-02-16T19:00:41.835Z,15.35
2023-02-16T19:03:09.480Z,16.48
2023-02-16T19:05:36.287Z,17.27
2023-02-16T19:08:03.146Z,17.83
2023-02-16T19:10:30.242Z,17.60
2023-02-16T19:12:57.013Z,18.20
2023-02-16T19:15:24.065Z,15.90
2023-02-16T19:17:51.844Z,19.25
2023-02-16T19:20:19.625Z,16.67
2023-02-16T19:22:47.810Z,14.75
2023-02-16T19:25:15.437Z,17.67
2023-02-16T19:27:44.185Z,15.88
2023-02-16T19:30:12.209Z,15.50
2023-02-16T19:32:41.130Z,15.88
2023-02-16T19:35:12.321Z,16.45
2023-02-16T19:37:39.314Z,16.38
2023-02-16T19:40:09.631Z,16.10
2023-02-16T19:42:37.302Z,17.65
2023-02-16T19:45:04.734Z,15.73
2023-02-16T19:47:31.484Z,15.52
2023-02-16T19:49:58.265Z,15.57
2023-02-16T19:52:25.333Z,15.23
2023-02-16T19:54:52.065Z,16.27
2023-02-16T19:57:19.037Z,13.88
2023-02-16T19:59:45.742Z,17.48
2023-02-16T20:02:14.671Z,14.57
2023-02-16T20:04:43.200Z,14.95
2023-02-16T20:07:09.982Z,14.82
2023-02-16T20:09:37.339Z,14.43
2023-02-16T20:12:04.961Z,17.13
2023-02-16T20:14:31.710Z,15.27
2023-02-16T20:16:58.451Z,14.75
2023-02-16T20:19:25.214Z,15.95
2023-02-16T20:21:51.969Z,14.77
2023-02-16T20:24:18.725Z,13.52
2023-02-16T20:26:47.160Z,14.80
2023-02-16T20:29:16.269Z,15.10
2023-02-16T20:31:54.665Z,18.88
2023-02-16T20:34:23.812Z,16.38
2023-02-16T20:36:50.563Z,15.02
2023-02-16T20:39:17.365Z,14.43
2023-02-16T20:41:44.555Z,13.15
2023-02-16T20:44:12.578Z,13.82
2023-02-16T20:46:41.036Z,15.25
2023-02-16T20:49:08.931Z,15.40
2023-02-16T20:51:37.389Z,13.80
2023-02-16T20:54:05.377Z,16.55
2023-02-16T20:56:32.121Z,16.45
2023-02-16T20:58:58.943Z,14.77
2023-02-16T21:01:40.043Z,14.88
2023-02-16T21:04:08.275Z,15.00
2023-02-16T21:06:36.515Z,14.00
2023-02-16T21:09:05.788Z,14.60
2023-02-16T21:11:32.644Z,15.90
2023-02-16T21:13:59.509Z,15.02
2023-02-16T21:16:26.364Z,14.98
2023-02-16T21:18:53.136Z,15.73
2023-02-16T21:21:20.274Z,17.02
2023-02-16T21:23:51.813Z,14.85
2023-02-16T21:26:22.772Z,14.20
2023-02-16T21:28:50.145Z,14.63
2023-02-16T21:31:24.461Z,14.00
2023-02-16T21:33:52.213Z,17.60
2023-02-16T21:36:23.914Z,16.88
2023-02-16T21:38:50.826Z,17.35
2023-02-16T21:41:24.842Z,14.80
2023-02-16T21:44:08.258Z,15.70
2023-02-16T21:46:48.314Z,15.60
2023-02-16T21:49:20.056Z,15.13
2023-02-16T21:51:48.487Z,15.85
2023-02-16T21:54:38.858Z,16.58
2023-02-16T21:57:05.586Z,15.32
2023-02-16T21:59:32.347Z,15.45
2023-02-16T22:01:59.223Z,17.38
2023-02-16T22:04:26.032Z,14.98
2023-02-16T22:06:52.764Z,15.07
2023-02-16T22:09:22.935Z,15.23
2023-02-16T22:11:51.306Z,16.27
2023-02-16T22:14:19.334Z,15.25
2023-02-16T22:16:47.784Z,15.15
2023-02-16T22:19:17.887Z,16.10
2023-02-16T22:21:46.840Z,14.70
2023-02-16T22:24:16.920Z,16.65
2023-02-16T22:26:44.901Z,16.30
2023-02-16T22:29:12.981Z,14.63
2023-02-16T22:31:46.878Z,16.02
2023-02-16T22:36:43.791Z,13.23
2023-02-16T22:39:13.889Z,15.15
2023-02-16T22:41:41.235Z,14.07
2023-02-16T22:44:09.799Z,18.35
2023-02-16T22:46:36.552Z,16.05
2023-02-16T22:49:03.395Z,14.98
2023-02-16T22:51:30.979Z,15.90
2023-02-16T22:54:00.607Z,16.35
2023-02-16T22:56:28.254Z,15.48
2023-02-16T22:58:57.668Z,15.45
2023-02-16T23:01:27.518Z,16.17
2023-02-16T23:03:58.543Z,14.98
2023-02-16T23:06:33.471Z,17.23
2023-02-16T23:09:13.875Z,16.20
2023-02-16T23:11:41.054Z,15.32
2023-02-16T23:14:16.156Z,15.95
2023-02-16T23:16:49.973Z,19.83
2023-02-16T23:19:21.862Z,17.17
2023-02-16T23:21:49.422Z,16.30
2023-02-16T23:24:21.527Z,17.73
2023-02-16T23:26:48.821Z,17.90
2023-02-16T23:29:16.063Z,18.73
2023-02-16T23:31:46.565Z,16.55
2023-02-16T23:34:14.566Z,15.60
2023-02-16T23:36:42.087Z,16.80
2023-02-16T23:39:12.970Z,15.38
2023-02-16T23:41:40.731Z,16.40
2023-02-16T23:44:09.949Z,17.33
2023-02-16T23:46:36.700Z,15.00
2023-02-16T23:49:03.787Z,18.15
2023-02-16T23:51:30.726Z,18.42
2023-02-16T23:53:57.552Z,17.63
2023-02-16T23:56:27.582Z,17.10
2023-02-16T23:59:00.025Z,17.58
